createdAt,value
2019-03-17T00:01:57.167Z,98893.69
2019-03-17T00:04:15.683Z,98890.55
2019-03-17T00:06:42.101Z,98888.59
2019-03-17T00:09:08.653Z,98893.73
2019-03-17T00:11:34.813Z,98886.81
2019-03-17T00:14:00.971Z,98888.47
2019-03-17T00:16:27.474Z,98884.19
2019-03-17T00:18:53.723Z,98881.23
2019-03-17T00:21:19.848Z,98889.52
2019-03-17T00:23:46.011Z,98888.55
2019-03-17T00:26:12.184Z,98885.08
2019-03-17T00:28:38.352Z,98885.91
2019-03-17T00:31:04.585Z,98888.72
2019-03-17T00:33:30.746Z,98884.10
2019-03-17T00:35:56.936Z,98881.63
2019-03-17T00:38:23.093Z,98879.81
2019-03-17T00:40:49.265Z,98878.99
2019-03-17T00:43:15.420Z,98874.22
2019-03-17T00:45:41.601Z,98877.04
2019-03-17T00:48:07.774Z,98879.35
2019-03-17T00:50:33.984Z,98879.35
2019-03-17T00:53:00.139Z,98880.02
2019-03-17T00:55:32.809Z,98878.98
2019-03-17T00:57:59.780Z,98872.89
2019-03-17T01:00:26.090Z,98870.73
2019-03-17T01:02:52.396Z,98874.88
2019-03-17T01:05:19.006Z,98867.12
2019-03-17T01:07:45.247Z,98863.81
2019-03-17T01:10:12.917Z,98861.33
2019-03-17T01:12:39.059Z,98857.50
2019-03-17T01:15:06.435Z,98846.12
2019-03-17T01:17:32.564Z,98844.14
2019-03-17T01:19:58.739Z,98845.94
2019-03-17T01:22:24.899Z,98842.31
2019-03-17T01:24:51.140Z,98843.95
2019-03-17T01:27:17.333Z,98840.63
2019-03-17T01:29:43.533Z,98843.42
2019-03-17T01:32:09.661Z,98839.62
2019-03-17T01:34:36.286Z,98835.47
2019-03-17T01:37:02.443Z,98828.17
2019-03-17T01:39:28.641Z,98826.03
2019-03-17T01:41:55.087Z,98817.70
2019-03-17T01:44:21.859Z,98819.34
2019-03-17T01:46:48.006Z,98813.38
2019-03-17T01:49:14.205Z,98808.55
2019-03-17T01:51:40.399Z,98798.84
2019-03-17T01:54:06.604Z,98793.02
2019-03-17T01:56:32.820Z,98786.75
2019-03-17T01:58:59.247Z,98786.90
2019-03-17T02:01:25.442Z,98788.05
2019-03-17T02:03:51.604Z,98781.09
2019-03-17T02:06:17.780Z,98776.15
2019-03-17T02:08:43.930Z,98774.64
2019-03-17T02:11:10.100Z,98771.18
2019-03-17T02:13:36.275Z,98764.89
2019-03-17T02:16:02.532Z,98764.72
2019-03-17T02:18:28.681Z,98750.84
2019-03-17T02:20:55.260Z,98752.13
2019-03-17T02:23:21.390Z,98750.17
2019-03-17T02:25:47.582Z,98754.41
2019-03-17T02:28:13.746Z,98749.47
2019-03-17T02:30:40.074Z,98748.12
2019-03-17T02:33:06.232Z,98747.12
2019-03-17T02:35:39.581Z,98748.25
2019-03-17T02:38:00.464Z,98743.30
2019-03-17T02:40:26.609Z,98743.80
2019-03-17T02:42:52.749Z,98743.13
2019-03-17T02:45:18.933Z,98741.30
2019-03-17T02:47:45.079Z,98742.28
2019-03-17T02:50:11.335Z,98735.02
2019-03-17T02:52:37.494Z,98731.41
2019-03-17T02:55:07.767Z,98729.91
2019-03-17T02:57:33.913Z,98726.94
2019-03-17T03:00:00.050Z,98733.19
2019-03-17T03:02:26.209Z,98721.79
2019-03-17T03:04:52.375Z,98714.23
2019-03-17T03:07:18.567Z,98717.67
2019-03-17T03:09:44.746Z,98714.55
2019-03-17T03:12:10.932Z,98710.92
2019-03-17T03:14:37.152Z,98708.28
2019-03-17T03:17:03.335Z,98710.08
2019-03-17T03:19:31.102Z,98708.88
2019-03-17T03:21:57.283Z,98706.73
2019-03-17T03:24:23.434Z,98705.75
2019-03-17T03:26:49.626Z,98698.13
2019-03-17T03:29:15.773Z,98701.67
2019-03-17T03:31:42.149Z,98693.08
2019-03-17T03:34:08.306Z,98694.80
2019-03-17T03:36:34.509Z,98690.01
2019-03-17T03:39:00.658Z,98685.53
2019-03-17T03:41:27.078Z,98675.81
2019-03-17T03:43:53.232Z,98679.42
2019-03-17T03:46:20.275Z,98672.69
2019-03-17T03:48:46.427Z,98667.41
2019-03-17T03:51:12.610Z,98652.08
2019-03-17T03:53:38.750Z,98654.22
2019-03-17T03:56:04.900Z,98655.53
2019-03-17T03:58:31.062Z,98654.05
2019-03-17T04:00:57.298Z,98644.17
2019-03-17T04:03:23.443Z,98639.22
2019-03-17T04:05:49.663Z,98635.92
2019-03-17T04:08:15.864Z,98635.11
2019-03-17T04:10:42.092Z,98635.58
2019-03-17T04:13:13.788Z,98633.12
2019-03-17T04:15:39.991Z,98628.00
2019-03-17T04:18:06.219Z,98620.76
2019-03-17T04:20:32.341Z,98616.30
2019-03-17T04:22:58.510Z,98608.55
2019-03-17T04:25:24.672Z,98604.41
2019-03-17T04:27:50.833Z,98602.39
2019-03-17T04:30:17.031Z,98594.94
2019-03-17T04:32:43.186Z,98598.53
2019-03-17T04:35:09.317Z,98588.12
2019-03-17T04:37:35.527Z,98589.23
2019-03-17T04:40:02.094Z,98590.02
2019-03-17T04:42:28.266Z,98588.84
2019-03-17T04:44:54.403Z,98583.71
2019-03-17T04:47:20.576Z,98582.87
2019-03-17T04:49:46.716Z,98577.73
2019-03-17T04:52:12.886Z,98574.73
2019-03-17T04:54:39.055Z,98575.22
2019-03-17T04:57:05.232Z,98569.94
2019-03-17T04:59:31.376Z,98572.08
2019-03-17T05:01:57.593Z,98571.55
2019-03-17T05:04:23.729Z,98568.59
2019-03-17T05:06:52.833Z,98564.16
2019-03-17T05:09:18.242Z,98557.27
2019-03-17T05:11:44.770Z,98561.86
2019-03-17T05:14:10.907Z,98558.58
2019-03-17T05:16:37.061Z,98555.96
2019-03-17T05:19:03.574Z,98552.14
2019-03-17T05:21:29.728Z,98544.90
2019-03-17T05:23:55.938Z,98543.59
2019-03-17T05:26:22.077Z,98539.30
2019-03-17T05:28:48.623Z,98539.59
2019-03-17T05:31:14.880Z,98536.30
2019-03-17T05:33:41.036Z,98537.44
2019-03-17T05:36:07.186Z,98530.38
2019-03-17T05:38:33.371Z,98530.73
2019-03-17T05:40:59.554Z,98531.08
2019-03-17T05:43:26.034Z,98535.02
2019-03-17T05:45:52.491Z,98538.34
2019-03-17T05:48:18.665Z,98537.56
2019-03-17T05:50:44.841Z,98539.29
2019-03-17T05:53:17.422Z,98536.39
2019-03-17T05:55:43.582Z,98541.09
2019-03-17T05:58:09.790Z,98538.38
2019-03-17T06:00:36.321Z,98530.58
2019-03-17T06:03:02.539Z,98530.96
2019-03-17T06:05:28.677Z,98530.38
2019-03-17T06:07:54.850Z,98527.19
2019-03-17T06:10:21.387Z,98518.40
2019-03-17T06:12:47.560Z,98518.02
2019-03-17T06:15:13.695Z,98520.54
2019-03-17T06:17:39.887Z,98518.62
2019-03-17T06:20:10.563Z,98520.42
2019-03-17T06:22:36.794Z,98522.13
2019-03-17T06:25:06.338Z,98517.02
2019-03-17T06:27:32.487Z,98523.64
2019-03-17T06:29:58.691Z,98516.02
2019-03-17T06:32:24.952Z,98510.41
2019-03-17T06:34:51.110Z,98509.05
2019-03-17T06:37:17.558Z,98507.13
2019-03-17T06:39:43.723Z,98503.94
2019-03-17T06:42:09.888Z,98506.94
2019-03-17T06:44:36.078Z,98514.19
2019-03-17T06:47:02.267Z,98507.81
2019-03-17T06:49:28.434Z,98504.22
2019-03-17T06:51:58.838Z,98498.63
2019-03-17T06:54:22.643Z,98499.27
2019-03-17T06:56:48.797Z,98493.84
2019-03-17T06:59:17.460Z,98491.05
2019-03-17T07:01:43.063Z,98485.88
2019-03-17T07:04:09.223Z,98493.91
2019-03-17T07:06:35.373Z,98489.94
2019-03-17T07:09:01.681Z,98485.39
2019-03-17T07:11:29.429Z,98479.09
2019-03-17T07:13:55.591Z,98473.80
2019-03-17T07:16:21.818Z,98478.37
2019-03-17T07:18:47.969Z,98464.27
2019-03-17T07:21:14.111Z,98463.98
2019-03-17T07:23:40.295Z,98453.17
2019-03-17T07:26:07.046Z,98455.66
2019-03-17T07:28:33.245Z,98441.89
2019-03-17T07:30:59.452Z,98441.42
2019-03-17T07:33:25.624Z,98435.39
2019-03-17T07:35:51.770Z,98441.84
2019-03-17T07:38:17.950Z,98447.01
2019-03-17T07:40:44.098Z,98454.68
2019-03-17T07:43:10.274Z,98450.97
2019-03-17T07:45:36.834Z,98449.53
2019-03-17T07:48:03.010Z,98444.98
2019-03-17T07:50:29.214Z,98444.84
2019-03-17T07:52:55.382Z,98442.50
2019-03-17T07:55:21.554Z,98443.88
2019-03-17T07:57:47.692Z,98445.50
2019-03-17T08:00:14.267Z,98438.92
2019-03-17T08:02:40.464Z,98436.38
2019-03-17T08:05:11.357Z,98437.32
2019-03-17T08:07:37.676Z,98433.77
2019-03-17T08:10:12.008Z,98436.86
2019-03-17T08:12:39.325Z,98434.72
2019-03-17T08:15:10.244Z,98422.78
2019-03-17T08:17:36.552Z,98421.45
2019-03-17T08:20:05.276Z,98423.00
2019-03-17T08:22:31.434Z,98433.17
2019-03-17T08:24:57.793Z,98424.31
2019-03-17T08:27:23.970Z,98427.89
2019-03-17T08:29:50.172Z,98427.97
2019-03-17T08:32:16.377Z,98420.23
2019-03-17T08:34:42.564Z,98418.79
2019-03-17T08:37:08.978Z,98403.17
2019-03-17T08:39:35.136Z,98416.80
2019-03-17T08:42:01.292Z,98410.97
2019-03-17T08:44:27.532Z,98411.57
2019-03-17T08:46:53.663Z,98406.98
2019-03-17T08:49:19.830Z,98411.77
2019-03-17T08:51:46.024Z,98405.05
2019-03-17T08:54:12.195Z,98418.14
2019-03-17T08:56:38.373Z,98408.53
2019-03-17T08:59:04.525Z,98401.63
2019-03-17T09:01:30.714Z,98417.29
2019-03-17T09:03:56.906Z,98420.91
2019-03-17T09:06:23.078Z,98406.25
2019-03-17T09:08:49.228Z,98426.28
2019-03-17T09:11:15.388Z,98438.56
2019-03-17T09:13:41.535Z,98423.34
2019-03-17T09:16:07.734Z,98441.42
2019-03-17T09:18:33.879Z,98439.28
2019-03-17T09:21:00.051Z,98454.38
2019-03-17T09:23:26.204Z,98438.16
2019-03-17T09:25:52.386Z,98456.58
2019-03-17T09:28:18.539Z,98452.42
2019-03-17T09:30:44.790Z,98462.95
2019-03-17T09:33:10.937Z,98462.52
2019-03-17T09:35:37.180Z,98463.96
2019-03-17T09:38:03.675Z,98468.27
2019-03-17T09:40:29.950Z,98455.63
2019-03-17T09:42:56.222Z,98464.81
2019-03-17T09:45:22.706Z,98468.20
2019-03-17T09:47:48.857Z,98446.77
2019-03-17T09:50:19.100Z,98452.94
2019-03-17T09:52:45.595Z,98450.01
2019-03-17T09:55:11.785Z,98438.03
2019-03-17T09:57:37.944Z,98444.16
2019-03-17T10:00:14.933Z,98450.00
2019-03-17T10:02:41.080Z,98431.19
2019-03-17T10:05:08.778Z,98432.80
2019-03-17T10:07:35.294Z,98429.61
2019-03-17T10:10:02.171Z,98425.70
2019-03-17T10:12:28.694Z,98428.90
2019-03-17T10:14:54.836Z,98422.77
2019-03-17T10:17:21.012Z,98427.65
2019-03-17T10:19:47.183Z,98422.08
2019-03-17T10:22:13.408Z,98416.56
2019-03-17T10:24:40.148Z,98429.20
2019-03-17T10:27:06.305Z,98437.18
2019-03-17T10:29:32.452Z,98431.11
2019-03-17T10:31:58.885Z,98422.17
2019-03-17T10:34:25.300Z,98425.53
2019-03-17T10:36:51.836Z,98387.26
2019-03-17T10:39:20.492Z,98427.49
2019-03-17T10:41:46.994Z,98407.94
2019-03-17T10:44:13.175Z,98447.88
2019-03-17T10:46:39.350Z,98425.13
2019-03-17T10:49:05.524Z,98418.83
2019-03-17T10:51:31.754Z,98429.89
2019-03-17T10:53:57.910Z,98427.34
2019-03-17T10:56:24.121Z,98417.18
2019-03-17T10:58:50.269Z,98432.97
2019-03-17T11:01:16.461Z,98432.56
2019-03-17T11:03:42.630Z,98432.28
2019-03-17T11:06:08.889Z,98433.70
2019-03-17T11:08:37.090Z,98423.20
2019-03-17T11:11:16.889Z,98418.56
2019-03-17T11:13:43.366Z,98420.64
2019-03-17T11:16:11.421Z,98423.51
2019-03-17T11:18:40.885Z,98419.39
2019-03-17T11:21:07.164Z,98413.95
2019-03-17T11:23:33.355Z,98422.36
2019-03-17T11:25:59.615Z,98418.43
2019-03-17T11:28:25.838Z,98425.99
2019-03-17T11:30:59.391Z,98419.15
2019-03-17T11:33:25.760Z,98418.34
2019-03-17T11:35:51.892Z,98421.85
2019-03-17T11:38:18.077Z,98422.53
2019-03-17T11:40:44.529Z,98415.98
2019-03-17T11:43:10.730Z,98425.36
2019-03-17T11:45:37.262Z,98418.20
2019-03-17T11:48:09.295Z,98416.65
2019-03-17T11:50:35.438Z,98420.58
2019-03-17T11:53:04.226Z,98429.79
2019-03-17T11:55:31.852Z,98434.94
2019-03-17T11:58:01.380Z,98433.52
2019-03-17T12:00:31.330Z,98432.17
2019-03-17T12:02:57.513Z,98431.56
2019-03-17T12:05:23.651Z,98427.34
2019-03-17T12:07:49.834Z,98430.34
2019-03-17T12:10:21.555Z,98428.39
2019-03-17T12:12:48.001Z,98437.56
2019-03-17T12:15:29.704Z,98439.95
2019-03-17T12:17:55.870Z,98429.57
2019-03-17T12:20:23.996Z,98437.58
2019-03-17T12:22:50.184Z,98436.86
2019-03-17T12:25:17.614Z,98432.31
2019-03-17T12:27:43.825Z,98437.19
2019-03-17T12:30:25.356Z,98429.80
2019-03-17T12:32:52.824Z,98422.03
2019-03-17T12:35:19.061Z,98409.13
2019-03-17T12:37:45.457Z,98402.53
2019-03-17T12:40:11.710Z,98395.19
2019-03-17T12:42:38.130Z,98392.91
2019-03-17T12:45:06.695Z,98385.72
2019-03-17T12:47:32.838Z,98391.80
2019-03-17T12:49:59.300Z,98376.45
2019-03-17T12:52:25.490Z,98381.72
2019-03-17T12:54:51.758Z,98392.20
2019-03-17T12:57:18.005Z,98381.32
2019-03-17T12:59:44.163Z,98392.16
2019-03-17T13:02:10.664Z,98398.36
2019-03-17T13:04:36.837Z,98396.82
2019-03-17T13:07:03.395Z,98394.30
2019-03-17T13:09:29.514Z,98399.80
2019-03-17T13:11:55.758Z,98390.30
2019-03-17T13:14:21.942Z,98382.06
2019-03-17T13:16:55.256Z,98377.99
2019-03-17T13:19:21.478Z,98377.80
2019-03-17T13:21:48.021Z,98384.86
2019-03-17T13:24:14.187Z,98391.22
2019-03-17T13:26:40.361Z,98394.21
2019-03-17T13:29:06.557Z,98399.34
2019-03-17T13:31:39.174Z,98396.04
2019-03-17T13:34:11.795Z,98412.95
2019-03-17T13:36:37.983Z,98383.20
2019-03-17T13:39:10.706Z,98392.56
2019-03-17T13:41:36.889Z,98399.70
2019-03-17T13:44:10.308Z,98391.42
2019-03-17T13:46:36.457Z,98390.23
2019-03-17T13:49:02.581Z,98379.02
2019-03-17T13:51:28.755Z,98377.94
2019-03-17T13:53:54.922Z,98376.59
2019-03-17T13:56:21.161Z,98396.80
2019-03-17T13:58:47.351Z,98393.39
2019-03-17T14:01:13.886Z,98392.33
2019-03-17T14:03:40.635Z,98369.73
2019-03-17T14:06:06.777Z,98365.21
2019-03-17T14:08:32.976Z,98367.28
2019-03-17T14:10:59.123Z,98380.05
2019-03-17T14:13:25.342Z,98373.98
2019-03-17T14:15:51.543Z,98375.63
2019-03-17T14:18:17.699Z,98372.52
2019-03-17T14:20:44.270Z,98370.28
2019-03-17T14:23:10.426Z,98367.13
2019-03-17T14:25:37.017Z,98377.74
2019-03-17T14:28:03.197Z,98385.02
2019-03-17T14:30:29.488Z,98371.69
2019-03-17T14:32:55.656Z,98387.47
2019-03-17T14:35:22.171Z,98389.00
2019-03-17T14:37:48.290Z,98392.58
2019-03-17T14:40:15.482Z,98380.73
2019-03-17T14:42:43.572Z,98385.70
2019-03-17T14:45:14.532Z,98392.32
2019-03-17T14:47:40.687Z,98388.17
2019-03-17T14:50:13.196Z,98381.87
2019-03-17T14:52:39.335Z,98394.20
2019-03-17T14:55:06.305Z,98399.78
2019-03-17T14:57:32.444Z,98390.66
2019-03-17T14:59:58.611Z,98395.30
2019-03-17T15:02:24.780Z,98413.44
2019-03-17T15:04:50.966Z,98421.75
2019-03-17T15:07:17.460Z,98430.42
2019-03-17T15:09:43.617Z,98462.70
2019-03-17T15:12:09.787Z,98491.26
2019-03-17T15:14:36.368Z,98491.33
2019-03-17T15:17:02.511Z,98539.51
2019-03-17T15:19:28.679Z,98520.72
2019-03-17T15:21:54.879Z,98537.27
2019-03-17T15:24:21.396Z,98543.47
2019-03-17T15:26:47.580Z,98525.64
2019-03-17T15:29:13.756Z,98558.34
2019-03-17T15:31:39.977Z,98591.78
2019-03-17T15:34:06.119Z,98606.78
2019-03-17T15:36:32.320Z,98591.14
2019-03-17T15:38:58.490Z,98595.41
2019-03-17T15:41:24.944Z,98622.94
2019-03-17T15:43:51.073Z,98631.67
2019-03-17T15:46:17.509Z,98658.38
2019-03-17T15:48:43.950Z,98651.98
2019-03-17T15:51:19.510Z,98696.52
2019-03-17T15:53:38.215Z,98704.84
2019-03-17T15:56:04.385Z,98721.18
2019-03-17T15:58:31.245Z,98734.05
2019-03-17T16:00:57.788Z,98745.05
2019-03-17T16:03:23.933Z,98764.81
2019-03-17T16:05:50.096Z,98766.77
2019-03-17T16:08:16.256Z,98789.91
2019-03-17T16:10:42.430Z,98790.31
2019-03-17T16:13:08.566Z,98812.87
2019-03-17T16:15:34.747Z,98811.55
2019-03-17T16:18:00.904Z,98821.41
2019-03-17T16:20:27.339Z,98817.22
2019-03-17T16:22:53.486Z,98837.31
2019-03-17T16:25:24.996Z,98852.09
2019-03-17T16:27:51.229Z,98851.77
2019-03-17T16:30:22.242Z,98859.02
2019-03-17T16:32:48.478Z,98852.73
2019-03-17T16:35:14.843Z,98854.22
2019-03-17T16:37:41.000Z,98868.07
2019-03-17T16:40:38.270Z,98870.22
2019-03-17T16:43:04.525Z,98862.79
2019-03-17T16:45:30.703Z,98871.69
2019-03-17T16:47:56.946Z,98880.09
2019-03-17T16:50:23.323Z,98886.66
2019-03-17T16:52:49.451Z,98900.35
2019-03-17T16:55:15.913Z,98902.48
2019-03-17T16:57:42.140Z,98898.52
2019-03-17T17:00:19.122Z,98906.42
2019-03-17T17:02:46.306Z,98903.42
2019-03-17T17:05:14.754Z,98903.56
2019-03-17T17:07:41.179Z,98909.84
2019-03-17T17:10:22.028Z,98919.22
2019-03-17T17:12:48.196Z,98929.42
2019-03-17T17:15:27.188Z,98926.78
2019-03-17T17:17:53.332Z,98949.51
2019-03-17T17:20:24.412Z,98951.63
2019-03-17T17:22:51.190Z,98937.79
2019-03-17T17:25:17.677Z,98945.81
2019-03-17T17:27:43.839Z,98941.97
2019-03-17T17:30:13.577Z,98921.16
2019-03-17T17:32:39.933Z,98911.75
2019-03-17T17:35:06.315Z,98907.64
2019-03-17T17:37:32.903Z,98899.72
2019-03-17T17:39:59.070Z,98901.04
2019-03-17T17:42:25.303Z,98903.36
2019-03-17T17:44:51.441Z,98906.13
2019-03-17T17:47:17.604Z,98908.30
2019-03-17T17:49:43.807Z,98907.12
2019-03-17T17:52:10.007Z,98902.34
2019-03-17T17:54:36.143Z,98903.52
2019-03-17T17:57:02.728Z,98908.12
2019-03-17T17:59:28.887Z,98904.00
2019-03-17T18:01:55.059Z,98907.82
2019-03-17T18:04:21.523Z,98903.38
2019-03-17T18:06:47.683Z,98890.84
2019-03-17T18:09:13.837Z,98901.42
2019-03-17T18:11:46.243Z,98902.76
2019-03-17T18:14:12.374Z,98922.70
2019-03-17T18:16:41.105Z,98925.18
2019-03-17T18:19:06.587Z,98933.44
2019-03-17T18:21:32.756Z,98944.48
2019-03-17T18:23:59.285Z,98940.19
2019-03-17T18:26:25.742Z,98934.56
2019-03-17T18:28:51.879Z,98946.42
2019-03-17T18:31:18.401Z,98966.36
2019-03-17T18:33:44.560Z,98954.95
2019-03-17T18:36:10.763Z,98953.45
2019-03-17T18:38:37.159Z,98947.33
2019-03-17T18:41:03.285Z,98937.23
2019-03-17T18:43:29.467Z,98947.92
2019-03-17T18:45:55.606Z,98953.84
2019-03-17T18:48:22.139Z,98960.09
2019-03-17T18:50:48.300Z,98950.51
2019-03-17T18:53:14.480Z,98951.98
2019-03-17T18:55:40.610Z,98966.64
2019-03-17T18:58:06.815Z,98970.92
2019-03-17T19:00:32.955Z,98965.95
2019-03-17T19:02:59.143Z,98972.55
2019-03-17T19:05:25.305Z,98973.88
2019-03-17T19:07:51.506Z,98966.95
2019-03-17T19:10:19.165Z,98958.89
2019-03-17T19:12:46.402Z,98961.19
2019-03-17T19:15:20.261Z,98958.41
2019-03-17T19:17:46.640Z,98966.64
2019-03-17T19:20:14.679Z,98975.56
2019-03-17T19:22:40.902Z,98964.03
2019-03-17T19:25:13.603Z,98970.64
2019-03-17T19:27:39.786Z,98973.77
2019-03-17T19:30:13.232Z,98968.02
2019-03-17T19:32:39.568Z,98969.17
2019-03-17T19:35:06.519Z,98970.16
2019-03-17T19:37:32.692Z,98967.20
2019-03-17T19:40:00.957Z,98958.44
2019-03-17T19:42:26.938Z,98954.81
2019-03-17T19:44:53.315Z,98964.52
2019-03-17T19:47:19.447Z,98975.39
2019-03-17T19:49:46.231Z,98977.70
2019-03-17T19:52:12.719Z,98983.61
2019-03-17T19:54:38.877Z,98989.71
2019-03-17T19:57:05.026Z,98989.70
2019-03-17T19:59:31.198Z,98994.98
2019-03-17T20:01:57.354Z,98999.59
2019-03-17T20:04:31.033Z,99002.56
2019-03-17T20:06:51.612Z,98992.16
2019-03-17T20:09:18.074Z,99009.79
2019-03-17T20:11:44.240Z,99021.82
2019-03-17T20:14:10.425Z,99025.26
2019-03-17T20:16:36.580Z,99030.70
2019-03-17T20:19:02.762Z,99040.07
2019-03-17T20:21:29.017Z,99038.42
2019-03-17T20:23:55.222Z,99042.52
2019-03-17T20:26:21.342Z,99041.86
2019-03-17T20:28:47.546Z,99047.63
2019-03-17T20:31:13.995Z,99075.94
2019-03-17T20:33:40.150Z,99062.44
2019-03-17T20:36:06.305Z,99045.11
2019-03-17T20:38:32.791Z,99060.41
2019-03-17T20:40:59.232Z,99067.16
2019-03-17T20:43:34.780Z,99089.41
2019-03-17T20:45:53.478Z,99109.50
2019-03-17T20:48:19.756Z,99124.66
2019-03-17T20:50:46.317Z,99114.61
2019-03-17T20:53:12.781Z,99108.48
2019-03-17T20:55:38.926Z,99115.56
2019-03-17T20:58:05.442Z,99120.68
2019-03-17T21:00:31.636Z,99120.81
2019-03-17T21:02:57.783Z,99130.20
2019-03-17T21:05:24.253Z,99139.76
2019-03-17T21:07:50.410Z,99153.95
2019-03-17T21:10:16.600Z,99166.28
2019-03-17T21:12:42.735Z,99173.86
2019-03-17T21:15:11.495Z,99174.71
2019-03-17T21:17:37.740Z,99174.02
2019-03-17T21:20:09.749Z,99178.27
2019-03-17T21:22:35.906Z,99182.89
2019-03-17T21:25:04.462Z,99192.61
2019-03-17T21:27:30.702Z,99195.88
2019-03-17T21:29:56.865Z,99189.92
2019-03-17T21:32:23.108Z,99178.20
2019-03-17T21:34:49.284Z,99169.61
2019-03-17T21:37:15.441Z,99179.13
2019-03-17T21:39:41.595Z,99185.19
2019-03-17T21:42:07.743Z,99181.90
2019-03-17T21:44:33.976Z,99190.76
2019-03-17T21:47:00.112Z,99181.38
2019-03-17T21:49:26.274Z,99178.25
2019-03-17T21:51:52.415Z,99184.51
2019-03-17T21:54:18.618Z,99197.81
2019-03-17T21:56:44.725Z,99182.99
2019-03-17T21:59:10.895Z,99179.20
2019-03-17T22:01:37.042Z,99180.88
2019-03-17T22:04:03.293Z,99180.72
2019-03-17T22:06:29.462Z,99194.38
2019-03-17T22:08:55.636Z,99202.75
2019-03-17T22:11:21.790Z,99204.23
2019-03-17T22:13:48.348Z,99202.45
2019-03-17T22:16:14.491Z,99189.14
2019-03-17T22:18:40.647Z,99187.50
2019-03-17T22:21:06.833Z,99188.98
2019-03-17T22:23:32.969Z,99195.57
2019-03-17T22:25:59.417Z,99195.38
2019-03-17T22:28:25.549Z,99213.16
2019-03-17T22:30:51.735Z,99210.98
2019-03-17T22:33:17.907Z,99209.83
2019-03-17T22:35:44.082Z,99210.49
2019-03-17T22:38:10.244Z,99216.13
2019-03-17T22:40:36.819Z,99211.15
2019-03-17T22:43:03.020Z,99213.95
2019-03-17T22:45:29.201Z,99221.52
2019-03-17T22:47:55.352Z,99225.02
2019-03-17T22:50:21.532Z,99232.92
2019-03-17T22:52:47.655Z,99238.84
2019-03-17T22:55:13.946Z,99241.48
2019-03-17T22:57:40.090Z,99234.38
2019-03-17T23:00:35.206Z,99236.73
2019-03-17T23:03:01.344Z,99229.27
2019-03-17T23:05:27.528Z,99231.90
2019-03-17T23:07:53.675Z,99242.41
2019-03-17T23:10:19.847Z,99244.55
2019-03-17T23:12:46.336Z,99253.80
2019-03-17T23:15:12.776Z,99259.73
2019-03-17T23:17:39.054Z,99261.21
2019-03-17T23:20:13.333Z,99266.45
2019-03-17T23:22:39.846Z,99264.80
2019-03-17T23:25:08.670Z,99269.87
2019-03-17T23:27:35.086Z,99273.80
2019-03-17T23:30:01.236Z,99278.73
2019-03-17T23:32:27.461Z,99277.71
2019-03-17T23:34:53.617Z,99280.67
2019-03-17T23:37:19.778Z,99281.50
2019-03-17T23:39:45.920Z,99277.19
2019-03-17T23:42:12.096Z,99275.34
2019-03-17T23:44:48.428Z,99273.33
2019-03-17T23:47:06.318Z,99288.94
2019-03-17T23:49:32.447Z,99276.55
2019-03-17T23:51:58.633Z,99293.52
2019-03-17T23:54:24.785Z,99292.48
2019-03-17T23:56:50.945Z,99287.34
2019-03-17T23:59:17.097Z,99292.78
